Time;durP1;ratioP1;P1;durP2;ratioP2;P2;SDS_P1;SDS_P2;PMS_P1;PMS_P2;Temp;Humidity;BMP_temperature;BMP_pressure;BME280_temperature;BME280_humidity;BME280_pressure;Samples;Min_cycle;Max_cycle;Signal;HPM_P1;HPM_P2
2022/08/01 00:02:00;;;;;;;0.70;0.20;;;;;;;;;;5004295;28;20481;-80
2022/08/01 00:04:46;;;;;;;0.47;0.20;;;;;;;;;;5005500;28;20091;-80
2022/08/01 00:07:32;;;;;;;0.73;0.20;;;;;;;;;;5032193;28;20037;-80
2022/08/01 00:10:18;;;;;;;1.05;0.30;;;;;;;;;;5018920;28;20033;-80
2022/08/01 00:13:04;;;;;;;0.70;0.35;;;;;;;;;;5018964;28;20033;-80
2022/08/01 00:15:50;;;;;;;0.57;0.17;;;;;;;;;;5004793;28;20045;-80
2022/08/01 00:18:35;;;;;;;1.83;0.40;;;;;;;;;;5004960;28;20037;-80
2022/08/01 00:21:21;;;;;;;1.15;0.20;;;;;;;;;;5017519;28;20037;-80
2022/08/01 00:24:07;;;;;;;1.20;0.30;;;;;;;;;;5019148;28;20034;-80
2022/08/01 00:26:53;;;;;;;0.73;0.30;;;;;;;;;;5003857;28;20079;-80
2022/08/01 00:29:38;;;;;;;0.90;0.52;;;;;;;;;;5018891;28;20500;-80
2022/08/01 00:32:24;;;;;;;0.90;0.30;;;;;;;;;;5017868;28;20033;-80
2022/08/01 00:35:11;;;;;;;0.85;0.28;;;;;;;;;;5018360;28;20037;-80
2022/08/01 00:37:56;;;;;;;0.55;0.30;;;;;;;;;;5017959;28;20037;-80
2022/08/01 00:40:42;;;;;;;0.50;0.20;;;;;;;;;;5018678;28;20068;-80
2022/08/01 00:43:28;;;;;;;0.88;0.47;;;;;;;;;;5017750;28;20041;-81
2022/08/01 00:46:14;;;;;;;0.80;0.20;;;;;;;;;;5018230;28;20037;-80
2022/08/01 00:49:02;;;;;;;1.25;0.30;;;;;;;;;;5003199;28;20037;-80
2022/08/01 00:51:48;;;;;;;0.75;0.30;;;;;;;;;;5018082;28;20047;-80
2022/08/01 00:54:33;;;;;;;0.98;0.22;;;;;;;;;;5004563;28;20041;-80
2022/08/01 00:57:19;;;;;;;1.27;0.10;;;;;;;;;;5018536;28;20075;-80
2022/08/01 01:00:06;;;;;;;2.30;0.55;;;;;;;;;;5017485;28;20041;-80
2022/08/01 01:02:51;;;;;;;0.40;0.20;;;;;;;;;;5005513;28;20041;-80
2022/08/01 01:05:47;;;;;;;0.98;0.20;;;;;;;;;;5004385;28;20037;-80
2022/08/01 01:08:41;;;;;;;2.05;0.35;;;;;;;;;;5004693;28;20037;-80
2022/08/01 01:11:57;;;;;;;1.08;0.20;;;;;;;;;;5004446;28;20037;-80
2022/08/01 01:15:15;;;;;;;1.85;0.32;;;;;;;;;;5019726;28;20527;-80
2022/08/01 01:18:09;;;;;;;0.50;0.15;;;;;;;;;;5016423;28;20040;-80
2022/08/01 01:21:28;;;;;;;0.63;0.20;;;;;;;;;;5017534;28;20092;-80
2022/08/01 01:24:28;;;;;;;0.88;0.10;;;;;;;;;;5030093;28;20087;-80
2022/08/01 01:27:21;;;;;;;1.23;0.35;;;;;;;;;;5005223;28;20089;-80
2022/08/01 01:30:06;;;;;;;;;;;;;;;;;;5003233;28;20045;-80
2022/08/01 01:32:52;;;;;;;0.85;0.30;;;;;;;;;;5031740;28;19939;-80
2022/08/01 01:35:44;;;;;;;0.70;0.25;;;;;;;;;;5003691;28;20033;-80
2022/08/01 01:38:33;;;;;;;1.20;0.22;;;;;;;;;;5004605;28;20524;-80
2022/08/01 01:41:19;;;;;;;0.55;0.10;;;;;;;;;;5003756;28;20041;-80
2022/08/01 01:44:05;;;;;;;0.30;0.10;;;;;;;;;;5016926;28;20034;-80
2022/08/01 01:46:51;;;;;;;1.05;0.35;;;;;;;;;;5003741;28;20037;-80
2022/08/01 01:49:37;;;;;;;0.63;0.30;;;;;;;;;;5002059;28;20138;-81
2022/08/01 01:52:24;;;;;;;3.35;0.57;;;;;;;;;;5002841;28;20488;-82
2022/08/01 01:55:09;;;;;;;1.20;0.30;;;;;;;;;;5017107;28;20495;-82
2022/08/01 01:57:55;;;;;;;0.85;0.38;;;;;;;;;;5003390;28;20480;-81
2022/08/01 02:00:42;;;;;;;0.70;0.30;;;;;;;;;;5002104;28;20132;-81
2022/08/01 02:03:28;;;;;;;1.90;0.40;;;;;;;;;;5003116;28;20034;-82
2022/08/01 02:06:14;;;;;;;0.98;0.20;;;;;;;;;;5015891;28;20033;-82
2022/08/01 02:08:59;;;;;;;1.92;0.40;;;;;;;;;;5003260;28;20634;-82
2022/08/01 02:11:46;;;;;;;1.13;0.32;;;;;;;;;;5003479;28;20037;-81
2022/08/01 02:14:32;;;;;;;0.65;0.30;;;;;;;;;;5001854;28;20136;-81
2022/08/01 02:17:19;;;;;;;4.18;0.70;;;;;;;;;;5002438;28;20123;-81
2022/08/01 02:20:05;;;;;;;1.83;0.50;;;;;;;;;;5002883;28;20072;-80
2022/08/01 02:22:57;;;;;;;2.40;0.40;;;;;;;;;;5015946;28;20042;-80
2022/08/01 02:25:48;;;;;;;;;;;;;;;;;;5004348;28;20446;-81
2022/08/01 02:28:36;;;;;;;1.55;0.47;;;;;;;;;;5031395;28;19912;-81
2022/08/01 02:31:22;;;;;;;0.88;0.40;;;;;;;;;;5001866;28;20048;-81
2022/08/01 02:34:09;;;;;;;1.10;0.38;;;;;;;;;;5016655;28;20045;-81
2022/08/01 02:36:55;;;;;;;2.50;0.77;;;;;;;;;;5002830;28;20138;-81
2022/08/01 02:39:41;;;;;;;2.45;0.50;;;;;;;;;;5002900;28;20034;-81
2022/08/01 02:42:27;;;;;;;1.40;0.60;;;;;;;;;;5001785;28;20034;-81
2022/08/01 02:45:13;;;;;;;3.15;0.73;;;;;;;;;;5018208;28;20526;-81
2022/08/01 02:48:01;;;;;;;1.85;0.60;;;;;;;;;;5005430;28;20037;-81
2022/08/01 02:50:48;;;;;;;1.10;0.50;;;;;;;;;;5007277;28;20116;-81
2022/08/01 02:53:36;;;;;;;1.90;0.60;;;;;;;;;;5006954;28;20037;-81
2022/08/01 02:56:22;;;;;;;1.90;0.70;;;;;;;;;;5008112;28;20041;-81
2022/08/01 02:59:15;;;;;;;1.13;0.52;;;;;;;;;;5007187;28;20064;-81
2022/08/01 03:02:00;;;;;;;;;;;;;;;;;;5007781;28;20037;-81
2022/08/01 03:04:46;;;;;;;3.03;0.55;;;;;;;;;;5020352;28;19913;-81
2022/08/01 03:07:32;;;;;;;2.28;0.88;;;;;;;;;;5005169;28;20041;-81
2022/08/01 03:10:18;;;;;;;1.85;0.98;;;;;;;;;;5006168;28;20091;-81
2022/08/01 03:13:06;;;;;;;2.75;0.60;;;;;;;;;;5005445;28;20048;-81
2022/08/01 03:15:52;;;;;;;1.15;0.60;;;;;;;;;;5020791;28;20053;-81
2022/08/01 03:18:37;;;;;;;2.78;0.60;;;;;;;;;;5019164;28;20065;-81
2022/08/01 03:21:23;;;;;;;1.52;0.75;;;;;;;;;;5006073;28;20047;-80
2022/08/01 03:24:10;;;;;;;1.05;0.75;;;;;;;;;;5006122;28;20036;-81
2022/08/01 03:26:56;;;;;;;1.20;0.70;;;;;;;;;;5018954;28;20077;-81
2022/08/01 03:29:42;;;;;;;2.10;0.82;;;;;;;;;;5005899;28;20573;-81
2022/08/01 03:32:28;;;;;;;2.47;1.08;;;;;;;;;;5006044;28;20036;-81
2022/08/01 03:35:14;;;;;;;1.13;0.63;;;;;;;;;;5004964;28;20038;-81
2022/08/01 03:38:00;;;;;;;1.17;0.68;;;;;;;;;;5005263;28;20132;-81
2022/08/01 03:40:57;;;;;;;2.55;0.80;;;;;;;;;;5005519;28;20033;-81
2022/08/01 03:43:48;;;;;;;3.97;0.90;;;;;;;;;;5005993;28;20041;-81
2022/08/01 03:46:41;;;;;;;1.25;0.80;;;;;;;;;;5005994;28;20530;-81
2022/08/01 03:49:33;;;;;;;1.23;0.63;;;;;;;;;;5005765;28;20045;-82
2022/08/01 03:52:19;;;;;;;1.70;0.60;;;;;;;;;;5006606;28;20041;-81
2022/08/01 03:55:09;;;;;;;1.55;0.70;;;;;;;;;;5005503;28;20087;-81
2022/08/01 03:57:55;;;;;;;1.40;0.60;;;;;;;;;;5005652;28;20049;-82
2022/08/01 04:00:41;;;;;;;2.72;0.88;;;;;;;;;;5004189;28;20041;-81
2022/08/01 04:03:26;;;;;;;1.40;0.70;;;;;;;;;;5005286;28;20064;-81
2022/08/01 04:06:13;;;;;;;1.85;0.80;;;;;;;;;;5019583;28;20045;-81
2022/08/01 04:08:59;;;;;;;2.10;0.70;;;;;;;;;;5018694;28;20045;-80
2022/08/01 04:11:45;;;;;;;1.70;0.90;;;;;;;;;;5005201;28;20037;-81
2022/08/01 04:14:31;;;;;;;1.08;0.50;;;;;;;;;;5019398;28;20099;-81
2022/08/01 04:17:17;;;;;;;1.40;0.55;;;;;;;;;;5018507;28;20087;-81
2022/08/01 04:20:03;;;;;;;1.20;0.73;;;;;;;;;;5018718;28;20049;-81
2022/08/01 04:22:49;;;;;;;1.55;0.60;;;;;;;;;;5018663;28;20128;-81
2022/08/01 04:25:35;;;;;;;1.20;0.70;;;;;;;;;;5005367;28;20056;-81
2022/08/01 04:28:20;;;;;;;1.08;0.57;;;;;;;;;;5018558;28;20046;-81
2022/08/01 04:31:09;;;;;;;2.38;0.90;;;;;;;;;;5004783;28;20113;-81
2022/08/01 04:33:55;;;;;;;1.35;0.70;;;;;;;;;;5005471;28;20103;-81
2022/08/01 04:36:41;;;;;;;0.90;0.70;;;;;;;;;;5004651;28;20049;-81
2022/08/01 04:39:30;;;;;;;2.85;1.00;;;;;;;;;;5019067;28;20483;-81
2022/08/01 04:42:16;;;;;;;2.35;0.68;;;;;;;;;;5005253;28;20030;-81
2022/08/01 04:45:02;;;;;;;2.33;0.70;;;;;;;;;;5004711;28;20041;-82
2022/08/01 04:47:48;;;;;;;1.55;0.63;;;;;;;;;;5018035;28;20038;-81
2022/08/01 04:50:34;;;;;;;1.90;0.70;;;;;;;;;;5004315;28;20080;-81
2022/08/01 04:53:23;;;;;;;1.65;0.82;;;;;;;;;;5004461;28;20037;-81
2022/08/01 04:56:09;;;;;;;0.80;0.50;;;;;;;;;;5003953;28;20034;-81
2022/08/01 05:01:59;;;;;;;0.95;0.50;;;;;;;;;;5021433;28;20521;-81
2022/08/01 05:04:45;;;;;;;2.70;1.33;;;;;;;;;;5002888;28;20038;-81
2022/08/01 05:07:32;;;;;;;1.38;0.63;;;;;;;;;;5017454;28;20073;-81
2022/08/01 05:10:18;;;;;;;1.70;0.65;;;;;;;;;;5004168;28;20044;-81
2022/08/01 05:13:04;;;;;;;2.33;0.75;;;;;;;;;;5003955;28;20037;-81
2022/08/01 05:15:50;;;;;;;1.40;0.80;;;;;;;;;;5005612;28;20049;-81
2022/08/01 05:18:35;;;;;;;2.08;1.23;;;;;;;;;;5003774;28;20523;-81
2022/08/01 05:21:21;;;;;;;1.58;0.90;;;;;;;;;;5003722;28;20174;-81
2022/08/01 05:24:07;;;;;;;1.02;0.65;;;;;;;;;;5002706;28;20069;-81
2022/08/01 05:26:53;;;;;;;1.70;1.00;;;;;;;;;;5016681;28;20046;-81
2022/08/01 05:29:39;;;;;;;1.98;1.23;;;;;;;;;;5002554;28;20080;-81
2022/08/01 05:32:24;;;;;;;1.38;0.70;;;;;;;;;;5002975;28;20569;-82
2022/08/01 05:35:10;;;;;;;1.70;0.80;;;;;;;;;;5002279;28;20503;-82
2022/08/01 05:37:56;;;;;;;2.40;1.00;;;;;;;;;;5016409;28;20128;-81
2022/08/01 05:40:42;;;;;;;2.78;1.23;;;;;;;;;;5002735;28;20467;-81
2022/08/01 05:43:27;;;;;;;1.52;0.90;;;;;;;;;;5002711;28;20029;-82
2022/08/01 05:46:13;;;;;;;2.63;1.20;;;;;;;;;;5017845;28;20048;-82
2022/08/01 05:48:59;;;;;;;2.78;1.25;;;;;;;;;;5017279;28;20041;-82
2022/08/01 05:51:45;;;;;;;2.35;1.17;;;;;;;;;;5017003;28;20529;-82
2022/08/01 05:54:31;;;;;;;1.40;0.70;;;;;;;;;;5003424;28;20041;-82
2022/08/01 05:57:16;;;;;;;2.78;1.30;;;;;;;;;;5017161;28;20045;-82
2022/08/01 06:00:02;;;;;;;2.15;1.40;;;;;;;;;;5017542;28;20049;-81
2022/08/01 06:02:48;;;;;;;2.58;1.02;;;;;;;;;;5003940;28;20393;-82
2022/08/01 06:05:34;;;;;;;2.00;1.02;;;;;;;;;;5002829;28;20522;-82
2022/08/01 06:08:20;;;;;;;2.30;1.08;;;;;;;;;;5002251;28;20535;-82
2022/08/01 06:11:05;;;;;;;2.22;1.20;;;;;;;;;;5003038;28;20566;-81
2022/08/01 06:13:51;;;;;;;2.53;1.55;;;;;;;;;;5003298;28;20036;-81
2022/08/01 06:16:37;;;;;;;1.60;0.95;;;;;;;;;;5003045;28;20136;-79
2022/08/01 06:19:22;;;;;;;2.20;1.23;;;;;;;;;;5016288;28;20045;-80
2022/08/01 06:22:08;;;;;;;2.78;1.30;;;;;;;;;;5001997;28;20034;-81
2022/08/01 06:24:54;;;;;;;2.33;1.52;;;;;;;;;;5001577;28;20041;-81
2022/08/01 06:27:39;;;;;;;4.32;1.20;;;;;;;;;;5003542;28;20088;-81
2022/08/01 06:30:25;;;;;;;2.17;1.20;;;;;;;;;;5017044;28;20086;-81
2022/08/01 06:33:11;;;;;;;3.53;1.20;;;;;;;;;;5016450;28;20591;-80
2022/08/01 06:35:57;;;;;;;1.88;1.10;;;;;;;;;;5030042;28;20037;-80
2022/08/01 06:38:42;;;;;;;3.05;1.48;;;;;;;;;;5003005;28;20056;-81
2022/08/01 06:41:28;;;;;;;3.42;1.40;;;;;;;;;;5016019;28;20041;-81
2022/08/01 06:44:14;;;;;;;2.50;1.40;;;;;;;;;;5029396;28;20080;-80
2022/08/01 06:47:00;;;;;;;2.38;1.10;;;;;;;;;;5003078;28;20045;-81
2022/08/01 06:49:45;;;;;;;2.53;1.58;;;;;;;;;;5016403;28;20053;-81
2022/08/01 06:52:31;;;;;;;3.03;1.00;;;;;;;;;;5017176;28;20044;-80
2022/08/01 06:55:17;;;;;;;4.30;1.30;;;;;;;;;;5001806;28;20490;-82
2022/08/01 06:58:02;;;;;;;2.75;1.40;;;;;;;;;;5015872;28;20053;-81
2022/08/01 07:00:48;;;;;;;3.70;2.00;;;;;;;;;;5016524;28;20041;-82
2022/08/01 07:03:34;;;;;;;6.07;1.60;;;;;;;;;;5001134;28;20060;-82
2022/08/01 07:06:24;;;;;;;3.53;1.80;;;;;;;;;;5015621;28;20571;-82
2022/08/01 07:09:09;;;;;;;5.68;2.45;;;;;;;;;;5001965;28;20500;-82
2022/08/01 07:11:55;;;;;;;4.20;2.03;;;;;;;;;;5001496;28;20041;-82
2022/08/01 07:14:41;;;;;;;5.32;2.90;;;;;;;;;;5002575;28;20033;-81
2022/08/01 07:17:26;;;;;;;8.10;3.50;;;;;;;;;;5002348;28;20103;-82
2022/08/01 07:20:12;;;;;;;6.28;3.33;;;;;;;;;;5002367;28;20037;-82
2022/08/01 07:22:58;;;;;;;8.15;3.58;;;;;;;;;;5016611;28;20083;-81
2022/08/01 07:25:44;;;;;;;8.77;3.05;;;;;;;;;;5016225;28;20041;-81
2022/08/01 07:28:29;;;;;;;6.30;3.40;;;;;;;;;;5002612;28;20588;-82
2022/08/01 07:31:19;;;;;;;6.70;2.72;;;;;;;;;;5002286;28;20213;-84
2022/08/01 07:34:04;;;;;;;7.28;2.83;;;;;;;;;;5005853;28;20083;-83
2022/08/01 07:36:51;;;;;;;4.55;3.20;;;;;;;;;;5005872;28;20037;-83
2022/08/01 07:39:36;;;;;;;6.25;3.25;;;;;;;;;;5004806;28;20038;-84
2022/08/01 07:42:22;;;;;;;4.10;2.95;;;;;;;;;;5019333;28;20042;-84
2022/08/01 07:45:08;;;;;;;3.83;2.63;;;;;;;;;;5032288;28;20040;-84
2022/08/01 07:47:54;;;;;;;4.38;3.15;;;;;;;;;;5005013;28;20503;-83
2022/08/01 07:50:40;;;;;;;5.05;3.00;;;;;;;;;;5019476;28;20084;-82
2022/08/01 07:53:25;;;;;;;6.18;3.30;;;;;;;;;;5004990;28;20053;-84
2022/08/01 07:56:11;;;;;;;3.85;2.22;;;;;;;;;;5005762;28;20514;-83
2022/08/01 07:58:57;;;;;;;6.00;2.92;;;;;;;;;;5005263;28;20038;-82
2022/08/01 08:01:42;;;;;;;9.95;4.15;;;;;;;;;;5004510;28;20037;-82
2022/08/01 08:04:28;;;;;;;5.40;2.80;;;;;;;;;;5004100;28;20037;-82
2022/08/01 08:07:14;;;;;;;6.35;4.43;;;;;;;;;;5005466;28;20037;-82
2022/08/01 08:09:59;;;;;;;18.88;14.30;;;;;;;;;;5005155;28;20077;-81
2022/08/01 08:12:46;;;;;;;14.57;10.48;;;;;;;;;;5005397;28;20056;-81
2022/08/01 08:15:32;;;;;;;11.10;8.45;;;;;;;;;;5017781;28;20084;-81
2022/08/01 08:18:17;;;;;;;10.70;7.60;;;;;;;;;;5005000;28;20045;-81
2022/08/01 08:21:03;;;;;;;10.32;7.70;;;;;;;;;;5017796;28;20124;-81
2022/08/01 08:26:55;;;;;;;12.75;6.18;;;;;;;;;;5032027;28;20047;-81
2022/08/01 08:29:41;;;;;;;9.63;5.72;;;;;;;;;;5018209;28;20106;-81
2022/08/01 08:32:27;;;;;;;8.05;4.22;;;;;;;;;;5005190;28;20042;-81
2022/08/01 08:35:13;;;;;;;5.40;3.60;;;;;;;;;;5004912;28;20041;-81
2022/08/01 08:37:59;;;;;;;5.63;3.63;;;;;;;;;;5003501;28;20053;-81
2022/08/01 08:40:44;;;;;;;5.43;3.22;;;;;;;;;;5004272;28;20049;-82
2022/08/01 08:43:30;;;;;;;3.90;2.55;;;;;;;;;;5013366;28;20134;-81
2022/08/01 08:46:16;;;;;;;3.60;2.08;;;;;;;;;;5045319;28;20121;-83
2022/08/01 08:49:03;;;;;;;3.92;1.88;;;;;;;;;;5041176;28;20044;-82
2022/08/01 08:51:50;;;;;;;4.93;1.90;;;;;;;;;;5040398;28;20036;-84
2022/08/01 08:54:39;;;;;;;2.95;1.63;;;;;;;;;;5038063;28;20037;-84
2022/08/01 08:57:24;;;;;;;3.03;1.58;;;;;;;;;;5025364;28;20434;-83
2022/08/01 09:00:11;;;;;;;3.65;1.90;;;;;;;;;;5027131;28;20044;-84
2022/08/01 09:03:00;;;;;;;2.83;1.45;;;;;;;;;;5057470;28;20036;-83
2022/08/01 09:05:47;;;;;;;2.60;1.45;;;;;;;;;;5057539;28;20029;-82
2022/08/01 09:08:33;;;;;;;8.60;1.45;;;;;;;;;;5043924;28;20076;-81
2022/08/01 09:11:18;;;;;;;3.75;1.30;;;;;;;;;;5043709;28;20037;-83
2022/08/01 09:14:04;;;;;;;4.10;1.33;;;;;;;;;;5025790;28;20037;-83
2022/08/01 09:17:06;;;;;;;3.22;1.75;;;;;;;;;;5050722;28;20210;-83
2022/08/01 09:19:54;;;;;;;3.63;2.03;;;;;;;;;;5004221;28;20045;-83
2022/08/01 09:22:39;;;;;;;5.78;2.55;;;;;;;;;;5018788;28;20034;-82
2022/08/01 09:25:32;;;;;;;4.18;2.60;;;;;;;;;;5017483;28;20099;-82
2022/08/01 09:28:18;;;;;;;4.60;2.05;;;;;;;;;;5020003;28;20037;-82
2022/08/01 09:31:11;;;;;;;5.85;2.42;;;;;;;;;;5017275;28;20042;-82
2022/08/01 09:33:58;;;;;;;5.20;2.72;;;;;;;;;;5017902;28;20404;-84
2022/08/01 09:36:56;;;;;;;5.72;3.05;;;;;;;;;;5018531;28;20068;-81
2022/08/01 09:39:44;;;;;;;5.13;3.47;;;;;;;;;;5017410;28;20034;-81
2022/08/01 09:42:30;;;;;;;5.22;2.75;;;;;;;;;;5031985;28;20060;-81
2022/08/01 09:45:34;;;;;;;5.80;2.90;;;;;;;;;;5018352;28;20075;-81
2022/08/01 09:48:21;;;;;;;10.77;5.60;;;;;;;;;;5016828;28;20092;-80
2022/08/01 09:51:07;;;;;;;10.20;6.75;;;;;;;;;;5019661;28;20462;-81
2022/08/01 09:53:53;;;;;;;13.38;7.68;;;;;;;;;;5042780;28;20047;-81
2022/08/01 09:56:42;;;;;;;9.77;6.45;;;;;;;;;;5041802;28;20174;-81
2022/08/01 09:59:37;;;;;;;8.90;4.78;;;;;;;;;;5042170;28;20040;-81
2022/08/01 10:02:31;;;;;;;10.55;4.53;;;;;;;;;;5056874;28;20434;-81
2022/08/01 10:05:17;;;;;;;6.40;3.83;;;;;;;;;;5069572;28;20081;-81
2022/08/01 10:08:04;;;;;;;4.85;3.53;;;;;;;;;;5043946;28;20033;-81
2022/08/01 10:11:13;;;;;;;4.53;2.55;;;;;;;;;;5043113;28;20029;-81
2022/08/01 10:13:58;;;;;;;4.72;3.05;;;;;;;;;;5056917;28;20044;-80
2022/08/01 10:16:45;;;;;;;4.97;2.60;;;;;;;;;;5056408;28;20127;-80
2022/08/01 10:19:32;;;;;;;5.07;3.08;;;;;;;;;;5042003;28;20040;-80
2022/08/01 10:22:18;;;;;;;3.80;2.20;;;;;;;;;;5056659;28;20033;-81
2022/08/01 10:25:04;;;;;;;5.65;2.40;;;;;;;;;;5056201;28;20082;-81
2022/08/01 10:27:52;;;;;;;4.32;2.20;;;;;;;;;;5055278;28;20040;-80
2022/08/01 10:30:41;;;;;;;3.08;1.80;;;;;;;;;;5042623;28;20056;-81
2022/08/01 10:33:30;;;;;;;3.30;1.98;;;;;;;;;;5042758;28;20487;-81
2022/08/01 10:36:18;;;;;;;5.13;2.17;;;;;;;;;;5042546;28;20036;-81
2022/08/01 10:39:07;;;;;;;4.00;1.92;;;;;;;;;;5035293;28;20086;-80
2022/08/01 10:41:53;;;;;;;4.25;2.00;;;;;;;;;;5015542;28;20045;-80
2022/08/01 10:44:39;;;;;;;2.90;1.45;;;;;;;;;;5016266;28;20043;-80
2022/08/01 10:47:27;;;;;;;5.15;2.40;;;;;;;;;;5004210;28;20041;-80
2022/08/01 10:50:18;;;;;;;3.78;1.95;;;;;;;;;;5010562;28;20045;-80
2022/08/01 10:53:14;;;;;;;10.23;2.28;;;;;;;;;;5038534;28;20037;-78
2022/08/01 10:56:01;;;;;;;4.47;2.03;;;;;;;;;;5017223;28;20079;-79
2022/08/01 10:58:48;;;;;;;6.03;2.10;;;;;;;;;;5015252;28;20045;-78
2022/08/01 11:01:33;;;;;;;4.70;1.70;;;;;;;;;;5018374;28;20038;-79
2022/08/01 11:04:19;;;;;;;5.45;2.35;;;;;;;;;;5022839;28;20083;-78
2022/08/01 11:07:06;;;;;;;7.38;2.25;;;;;;;;;;5022781;28;20071;-79
2022/08/01 11:10:04;;;;;;;6.88;2.08;;;;;;;;;;5026083;28;20039;-79
2022/08/01 11:12:50;;;;;;;3.80;2.92;;;;;;;;;;5020446;28;20030;-79
2022/08/01 11:15:36;;;;;;;4.10;2.33;;;;;;;;;;5021683;28;20045;-79
2022/08/01 11:18:27;;;;;;;3.80;2.03;;;;;;;;;;5021339;28;20061;-78
2022/08/01 11:21:13;;;;;;;6.25;3.25;;;;;;;;;;5033519;28;20041;-79
2022/08/01 11:23:59;;;;;;;4.80;2.67;;;;;;;;;;5007236;28;20034;-79
2022/08/01 11:27:21;;;;;;;2.15;1.42;;;;;;;;;;5021056;28;20053;-79
2022/08/01 11:30:10;;;;;;;4.57;1.35;;;;;;;;;;5020504;28;20030;-78
2022/08/01 11:32:56;;;;;;;2.83;1.60;;;;;;;;;;5033307;28;20046;-79
2022/08/01 11:36:10;;;;;;;3.88;1.83;;;;;;;;;;5019466;28;20035;-79
2022/08/01 11:39:05;;;;;;;2.40;1.52;;;;;;;;;;5044604;28;20037;-80
2022/08/01 11:41:52;;;;;;;2.58;1.50;;;;;;;;;;5053259;28;20041;-79
2022/08/01 11:44:50;;;;;;;3.53;1.77;;;;;;;;;;5024853;28;20071;-79
2022/08/01 11:47:48;;;;;;;3.75;2.08;;;;;;;;;;5006787;28;20103;-79
2022/08/01 11:50:35;;;;;;;4.78;2.15;;;;;;;;;;5019731;28;20128;-78
2022/08/01 11:53:24;;;;;;;4.28;2.47;;;;;;;;;;5056688;28;20079;-80
2022/08/01 11:56:10;;;;;;;4.95;1.70;;;;;;;;;;5058877;28;20052;-80
2022/08/01 11:58:59;;;;;;;2.83;1.88;;;;;;;;;;5046661;28;20079;-80
2022/08/01 12:01:45;;;;;;;4.85;2.08;;;;;;;;;;5047383;28;20119;-79
2022/08/01 12:04:50;;;;;;;4.05;2.20;;;;;;;;;;5046157;28;20040;-81
2022/08/01 12:07:36;;;;;;;4.28;2.00;;;;;;;;;;5059340;28;20047;-80
2022/08/01 12:10:24;;;;;;;2.08;1.23;;;;;;;;;;5047377;28;20032;-79
2022/08/01 12:13:10;;;;;;;2.85;1.92;;;;;;;;;;5048343;28;20072;-81
2022/08/01 12:15:56;;;;;;;3.85;1.45;;;;;;;;;;5038612;28;20067;-81
2022/08/01 12:18:43;;;;;;;7.45;1.65;;;;;;;;;;5022994;28;20033;-82
2022/08/01 12:21:29;;;;;;;3.78;1.98;;;;;;;;;;5023468;28;20041;-82
2022/08/01 12:24:21;;;;;;;3.72;1.90;;;;;;;;;;5025622;28;20040;-82
2022/08/01 12:27:07;;;;;;;3.88;1.58;;;;;;;;;;5023274;28;20041;-82
2022/08/01 12:29:53;;;;;;;2.90;1.48;;;;;;;;;;5023612;28;20041;-83
2022/08/01 12:32:40;;;;;;;6.20;1.58;;;;;;;;;;5025780;28;20044;-82
2022/08/01 12:35:26;;;;;;;3.17;1.67;;;;;;;;;;5023423;28;20055;-82
2022/08/01 12:38:21;;;;;;;2.10;1.38;;;;;;;;;;5023382;28;20036;-83
2022/08/01 12:41:10;;;;;;;2.38;1.67;;;;;;;;;;5017658;28;20411;-82
2022/08/01 12:43:55;;;;;;;3.38;1.33;;;;;;;;;;5018693;28;20048;-82
2022/08/01 12:46:41;;;;;;;2.35;1.27;;;;;;;;;;5015602;28;20033;-82
2022/08/01 12:49:28;;;;;;;3.55;1.17;;;;;;;;;;5016552;28;20069;-82
2022/08/01 12:52:14;;;;;;;3.08;0.98;;;;;;;;;;5038429;28;20048;-81
2022/08/01 12:55:26;;;;;;;2.88;1.10;;;;;;;;;;5043437;28;20105;-82
2022/08/01 12:58:14;;;;;;;3.88;0.90;;;;;;;;;;5057022;28;20045;-83
2022/08/01 13:01:05;;;;;;;2.10;1.15;;;;;;;;;;5057837;28;20047;-83
2022/08/01 13:04:01;;;;;;;1.87;0.90;;;;;;;;;;5044045;28;20041;-83
2022/08/01 13:06:47;;;;;;;11.23;1.73;;;;;;;;;;5058148;28;20047;-83
2022/08/01 13:09:33;;;;;;;2.25;1.00;;;;;;;;;;5058252;28;20074;-82
2022/08/01 13:12:19;;;;;;;2.28;0.85;;;;;;;;;;5044300;28;20457;-82
2022/08/01 13:15:18;;;;;;;4.20;1.17;;;;;;;;;;5057858;28;20472;-82
2022/08/01 13:18:37;;;;;;;2.40;0.90;;;;;;;;;;5057802;28;20491;-83
2022/08/01 13:21:26;;;;;;;1.58;0.90;;;;;;;;;;5049263;28;20047;-82
2022/08/01 13:24:13;;;;;;;2.13;0.85;;;;;;;;;;5043935;28;20059;-83
2022/08/01 13:27:03;;;;;;;1.88;0.75;;;;;;;;;;5044039;28;20099;-83
2022/08/01 13:29:52;;;;;;;1.73;0.65;;;;;;;;;;5056831;28;20072;-83
2022/08/01 13:32:38;;;;;;;1.60;0.85;;;;;;;;;;5044380;28;20036;-83
2022/08/01 13:35:24;;;;;;;1.60;0.63;;;;;;;;;;5043583;28;20037;-83
2022/08/01 13:38:10;;;;;;;3.28;0.75;;;;;;;;;;5058163;28;20052;-83
2022/08/01 13:40:59;;;;;;;2.70;0.90;;;;;;;;;;5039151;28;20115;-83
2022/08/01 13:43:44;;;;;;;1.58;0.60;;;;;;;;;;5037264;28;20454;-83
2022/08/01 13:46:31;;;;;;;2.00;0.63;;;;;;;;;;5018937;28;20037;-83
2022/08/01 13:49:17;;;;;;;1.20;0.70;;;;;;;;;;5016110;28;20125;-83
2022/08/01 13:52:03;;;;;;;2.50;0.73;;;;;;;;;;5033246;28;20071;-83
2022/08/01 13:54:49;;;;;;;1.63;0.65;;;;;;;;;;5057683;28;20091;-83
2022/08/01 13:57:37;;;;;;;0.88;0.50;;;;;;;;;;5042297;28;20040;-83
2022/08/01 14:00:23;;;;;;;1.23;0.77;;;;;;;;;;5056509;28;20044;-83
2022/08/01 14:03:09;;;;;;;1.52;0.50;;;;;;;;;;5043202;28;20043;-83
2022/08/01 14:05:56;;;;;;;1.00;0.50;;;;;;;;;;5056511;28;20075;-83
2022/08/01 14:08:42;;;;;;;1.08;0.82;;;;;;;;;;5056599;28;20090;-83
2022/08/01 14:11:28;;;;;;;0.70;0.40;;;;;;;;;;5056354;28;20033;-83
2022/08/01 14:14:14;;;;;;;0.70;0.35;;;;;;;;;;5056480;28;20051;-82
2022/08/01 14:16:59;;;;;;;1.40;0.80;;;;;;;;;;5056093;28;20047;-82
2022/08/01 14:19:45;;;;;;;0.93;0.50;;;;;;;;;;5056137;28;20040;-83
2022/08/01 14:22:31;;;;;;;1.92;0.65;;;;;;;;;;5070366;28;20041;-82
2022/08/01 14:25:17;;;;;;;1.27;0.45;;;;;;;;;;5070918;28;20040;-82
2022/08/01 14:28:03;;;;;;;0.73;0.40;;;;;;;;;;5042561;28;20430;-82
2022/08/01 14:30:49;;;;;;;1.42;0.70;;;;;;;;;;5055613;28;20098;-82
2022/08/01 14:33:35;;;;;;;1.77;0.60;;;;;;;;;;5056458;28;20036;-82
2022/08/01 14:36:21;;;;;;;1.17;0.47;;;;;;;;;;5043093;28;20048;-82
2022/08/01 14:39:06;;;;;;;1.20;0.50;;;;;;;;;;5053719;28;20041;-83
2022/08/01 14:41:52;;;;;;;0.90;0.50;;;;;;;;;;5037443;28;20074;-83
2022/08/01 14:44:38;;;;;;;1.10;0.60;;;;;;;;;;5039285;28;20087;-82
2022/08/01 14:47:24;;;;;;;1.00;0.50;;;;;;;;;;5007116;28;20511;-82
2022/08/01 14:50:11;;;;;;;0.77;0.43;;;;;;;;;;5007559;28;20037;-82
2022/08/01 14:52:57;;;;;;;1.00;0.40;;;;;;;;;;5038576;28;20041;-82
2022/08/01 14:55:43;;;;;;;1.48;0.35;;;;;;;;;;5046993;28;20041;-82
2022/08/01 14:58:28;;;;;;;0.80;0.35;;;;;;;;;;5046719;28;20056;-82
2022/08/01 15:01:14;;;;;;;1.02;0.40;;;;;;;;;;5046591;28;20036;-82
2022/08/01 15:04:00;;;;;;;0.82;0.43;;;;;;;;;;5060696;28;20075;-82
2022/08/01 15:06:46;;;;;;;0.68;0.28;;;;;;;;;;5059415;28;20569;-82
2022/08/01 15:09:31;;;;;;;2.70;0.50;;;;;;;;;;5046644;28;20407;-82
2022/08/01 15:12:17;;;;;;;1.85;0.52;;;;;;;;;;5059931;28;20391;-82
2022/08/01 15:15:03;;;;;;;0.43;0.22;;;;;;;;;;5059556;28;20541;-82
2022/08/01 15:17:51;;;;;;;1.10;0.35;;;;;;;;;;5044406;28;20040;-82
2022/08/01 15:20:37;;;;;;;1.13;0.30;;;;;;;;;;5073289;28;20041;-82
2022/08/01 15:23:22;;;;;;;1.20;0.57;;;;;;;;;;5060265;28;20106;-82
2022/08/01 15:26:13;;;;;;;0.73;0.38;;;;;;;;;;5059675;28;20117;-81
2022/08/01 15:28:59;;;;;;;1.15;0.45;;;;;;;;;;5047711;28;20052;-82
2022/08/01 15:31:44;;;;;;;0.90;0.40;;;;;;;;;;5045699;28;20036;-82
2022/08/01 15:34:30;;;;;;;1.25;0.60;;;;;;;;;;5059366;28;20036;-82
2022/08/01 15:37:16;;;;;;;0.75;0.40;;;;;;;;;;5059209;28;20044;-82
2022/08/01 15:40:03;;;;;;;1.38;0.40;;;;;;;;;;5029805;28;20416;-82
2022/08/01 15:42:48;;;;;;;1.63;0.75;;;;;;;;;;5019510;28;20037;-82
2022/08/01 15:45:34;;;;;;;0.93;0.45;;;;;;;;;;5006171;28;20026;-82
2022/08/01 15:48:20;;;;;;;0.82;0.40;;;;;;;;;;5006483;28;20045;-82
2022/08/01 15:51:05;;;;;;;0.65;0.40;;;;;;;;;;5021539;28;20419;-81
2022/08/01 15:53:51;;;;;;;1.15;0.40;;;;;;;;;;5044871;28;20098;-81
2022/08/01 15:56:37;;;;;;;0.95;0.40;;;;;;;;;;5045435;28;20049;-82
2022/08/01 15:59:23;;;;;;;2.83;0.50;;;;;;;;;;5045387;28;20052;-81
2022/08/01 16:02:08;;;;;;;1.38;0.70;;;;;;;;;;5045836;28;20037;-81
2022/08/01 16:04:54;;;;;;;1.38;0.40;;;;;;;;;;5059290;28;20032;-81
2022/08/01 16:07:40;;;;;;;1.13;0.60;;;;;;;;;;5045585;28;20074;-81
2022/08/01 16:10:26;;;;;;;1.30;0.80;;;;;;;;;;5045500;28;20040;-82
2022/08/01 16:13:12;;;;;;;1.75;0.80;;;;;;;;;;5058693;28;20029;-82
2022/08/01 16:15:58;;;;;;;1.95;0.80;;;;;;;;;;5045630;28;20084;-81
2022/08/01 16:18:44;;;;;;;3.70;1.08;;;;;;;;;;5045265;28;20033;-81
2022/08/01 16:21:30;;;;;;;2.17;0.82;;;;;;;;;;5045193;28;20044;-81
2022/08/01 16:24:16;;;;;;;5.60;0.90;;;;;;;;;;5045191;28;20047;-81
2022/08/01 16:27:01;;;;;;;3.38;0.68;;;;;;;;;;5058907;28;20434;-81
2022/08/01 16:29:47;;;;;;;2.67;0.73;;;;;;;;;;5058460;28;20056;-81
2022/08/01 16:32:33;;;;;;;1.95;0.75;;;;;;;;;;5058477;28;20510;-81
2022/08/01 16:35:18;;;;;;;1.52;0.70;;;;;;;;;;5044922;28;20523;-81
2022/08/01 16:38:04;;;;;;;3.35;0.90;;;;;;;;;;5059449;28;20047;-81
2022/08/01 16:40:50;;;;;;;2.22;0.55;;;;;;;;;;5027402;28;20033;-81
2022/08/01 16:43:36;;;;;;;2.33;0.70;;;;;;;;;;5024596;28;20080;-81
2022/08/01 16:46:23;;;;;;;3.47;1.05;;;;;;;;;;5023131;28;20415;-81
2022/08/01 16:49:09;;;;;;;4.03;0.88;;;;;;;;;;5004689;28;20507;-81
2022/08/01 16:51:55;;;;;;;2.13;0.60;;;;;;;;;;5019542;28;20079;-81